createdAt,value
2019-05-05T00:01:36.190Z,9.30
2019-05-05T00:04:24.098Z,9.10
2019-05-05T00:06:55.425Z,9.10
2019-05-05T00:09:27.361Z,9.10
2019-05-05T00:12:18.044Z,9.10
2019-05-05T00:15:07.513Z,9.00
2019-05-05T00:17:39.733Z,9.00
2019-05-05T00:20:11.842Z,8.90
2019-05-05T00:22:45.513Z,8.80
2019-05-05T00:25:17.433Z,8.90
2019-05-05T00:27:49.305Z,8.80
2019-05-05T00:30:21.145Z,8.80
2019-05-05T00:32:54.714Z,8.80
2019-05-05T00:35:26.253Z,8.80
2019-05-05T00:37:57.992Z,8.80
2019-05-05T00:40:30.552Z,8.80
2019-05-05T00:43:02.411Z,8.60
2019-05-05T00:45:35.386Z,8.50
2019-05-05T00:48:16.053Z,8.30
2019-05-05T00:50:47.616Z,8.20
2019-05-05T00:53:19.262Z,8.10
2019-05-05T00:55:51.175Z,7.90
2019-05-05T00:58:24.694Z,7.80
2019-05-05T01:01:15.242Z,7.80
2019-05-05T01:03:47.003Z,7.90
2019-05-05T01:06:25.455Z,7.90
2019-05-05T01:08:56.933Z,7.80
2019-05-05T01:11:28.715Z,7.70
2019-05-05T01:14:00.401Z,7.60
2019-05-05T01:16:32.546Z,7.70
2019-05-05T01:19:04.571Z,7.70
2019-05-05T01:21:36.343Z,7.70
2019-05-05T01:24:08.377Z,7.80
2019-05-05T01:26:40.105Z,7.80
2019-05-05T01:29:14.648Z,7.70
2019-05-05T01:31:47.710Z,7.60
2019-05-05T01:34:26.027Z,7.50
2019-05-05T01:37:04.895Z,7.60
2019-05-05T01:39:45.999Z,7.50
2019-05-05T01:42:18.835Z,7.50
2019-05-05T01:44:50.588Z,7.50
2019-05-05T01:47:22.542Z,7.50
2019-05-05T01:49:54.510Z,7.30
2019-05-05T01:52:26.447Z,7.20
2019-05-05T01:54:58.121Z,7.30
2019-05-05T01:57:30.243Z,7.30
2019-05-05T02:00:04.281Z,7.20
2019-05-05T02:02:37.396Z,7.20
2019-05-05T02:05:09.571Z,7.10
2019-05-05T02:07:41.525Z,7.00
2019-05-05T02:10:15.195Z,7.00
2019-05-05T02:12:46.983Z,7.00
2019-05-05T02:15:19.283Z,7.00
2019-05-05T02:17:51.044Z,7.00
2019-05-05T02:21:05.012Z,7.00
2019-05-05T02:23:38.309Z,7.00
2019-05-05T02:26:10.524Z,6.80
2019-05-05T02:28:49.876Z,6.80
2019-05-05T02:31:46.525Z,6.80
2019-05-05T02:34:18.350Z,6.80
2019-05-05T02:36:50.016Z,6.80
2019-05-05T02:39:21.738Z,6.70
2019-05-05T02:41:54.759Z,6.50
2019-05-05T02:44:27.813Z,6.50
2019-05-05T02:47:08.977Z,6.50
2019-05-05T02:49:41.532Z,6.50
2019-05-05T02:52:15.410Z,6.40
2019-05-05T02:54:47.649Z,6.30
2019-05-05T02:57:19.543Z,6.20
2019-05-05T02:59:57.179Z,6.20
2019-05-05T03:02:32.178Z,6.30
2019-05-05T03:05:04.292Z,6.40
2019-05-05T03:07:36.608Z,6.40
2019-05-05T03:10:09.072Z,6.20
2019-05-05T03:12:43.919Z,6.20
2019-05-05T03:15:25.335Z,6.20
2019-05-05T03:17:57.069Z,6.10
2019-05-05T03:20:28.843Z,6.10
2019-05-05T03:23:00.985Z,6.10
2019-05-05T03:25:33.443Z,6.00
2019-05-05T03:28:05.630Z,5.90
2019-05-05T03:30:37.845Z,5.90
2019-05-05T03:33:09.609Z,6.00
2019-05-05T03:35:43.561Z,6.10
2019-05-05T03:38:16.510Z,6.00
2019-05-05T03:40:50.610Z,5.90
2019-05-05T03:43:29.922Z,5.80
2019-05-05T03:46:04.471Z,5.70
2019-05-05T03:48:36.597Z,5.70
2019-05-05T03:51:18.301Z,5.60
2019-05-05T03:53:43.714Z,5.60
2019-05-05T03:56:15.555Z,5.70
2019-05-05T03:58:47.662Z,5.80
2019-05-05T04:01:50.667Z,5.70
2019-05-05T04:04:24.208Z,5.70
2019-05-05T04:06:55.971Z,5.80
2019-05-05T04:09:28.296Z,5.70
2019-05-05T04:12:00.069Z,5.80
2019-05-05T04:14:31.809Z,5.80
2019-05-05T04:17:35.338Z,5.90
2019-05-05T04:20:44.617Z,5.80
2019-05-05T04:23:16.322Z,5.70
2019-05-05T04:25:48.194Z,5.70
2019-05-05T04:28:19.949Z,5.70
2019-05-05T04:30:53.575Z,5.60
2019-05-05T04:33:25.154Z,5.60
2019-05-05T04:35:56.830Z,5.60
2019-05-05T04:38:28.557Z,5.50
2019-05-05T04:41:00.367Z,5.60
2019-05-05T04:43:33.899Z,5.60
2019-05-05T04:46:05.762Z,5.50
2019-05-05T04:48:49.663Z,5.60
2019-05-05T04:51:24.848Z,5.70
2019-05-05T04:54:17.605Z,5.70
2019-05-05T04:56:49.315Z,5.70
2019-05-05T04:59:21.060Z,5.60
2019-05-05T05:01:55.825Z,5.60
2019-05-05T05:04:46.738Z,5.60
2019-05-05T05:07:19.102Z,5.60
2019-05-05T05:09:50.828Z,5.60
2019-05-05T05:12:23.721Z,5.60
2019-05-05T05:14:55.870Z,5.60
2019-05-05T05:17:34.648Z,5.60
2019-05-05T05:20:07.415Z,5.70
2019-05-05T05:22:39.205Z,5.60
2019-05-05T05:25:13.443Z,5.50
2019-05-05T05:27:44.885Z,5.60
2019-05-05T05:30:17.112Z,5.60
2019-05-05T05:32:48.927Z,5.70
2019-05-05T05:35:20.858Z,5.60
2019-05-05T05:37:55.939Z,5.50
2019-05-05T05:40:46.294Z,5.50
2019-05-05T05:43:23.010Z,5.50
2019-05-05T05:46:05.059Z,5.50
2019-05-05T05:49:08.728Z,5.60
2019-05-05T05:51:41.686Z,5.60
2019-05-05T05:54:14.175Z,5.70
2019-05-05T05:56:46.127Z,5.70
2019-05-05T05:59:18.777Z,5.70
2019-05-05T06:01:50.532Z,5.70
2019-05-05T06:04:23.528Z,5.70
2019-05-05T06:06:56.388Z,5.80
2019-05-05T06:09:28.163Z,5.70
2019-05-05T06:11:59.829Z,5.80
2019-05-05T06:14:33.855Z,5.70
2019-05-05T06:17:04.965Z,5.80
2019-05-05T06:19:36.629Z,5.80
2019-05-05T06:22:08.278Z,5.80
2019-05-05T06:24:41.065Z,5.90
2019-05-05T06:27:14.262Z,5.80
2019-05-05T06:29:46.225Z,5.80
2019-05-05T06:32:18.203Z,5.90
2019-05-05T06:34:50.059Z,6.00
2019-05-05T06:37:23.752Z,6.10
2019-05-05T06:39:58.279Z,6.00
2019-05-05T06:42:54.937Z,6.00
2019-05-05T06:45:34.283Z,6.00
2019-05-05T06:48:06.498Z,6.00
2019-05-05T06:50:38.255Z,6.00
2019-05-05T06:53:10.215Z,6.10
2019-05-05T06:55:44.281Z,6.20
2019-05-05T06:58:16.381Z,6.30
2019-05-05T07:00:48.353Z,6.30
2019-05-05T07:03:20.176Z,6.60
2019-05-05T07:05:53.747Z,6.70
2019-05-05T07:08:25.519Z,6.80
2019-05-05T07:10:57.379Z,6.90
2019-05-05T07:13:29.150Z,7.00
2019-05-05T07:16:00.925Z,7.00
2019-05-05T07:18:34.086Z,7.00
2019-05-05T07:21:06.597Z,7.20
2019-05-05T07:23:38.256Z,7.20
2019-05-05T07:26:10.065Z,7.20
2019-05-05T07:28:44.792Z,7.40
2019-05-05T07:31:16.797Z,7.30
2019-05-05T07:33:48.503Z,7.40
2019-05-05T07:36:36.301Z,7.70
2019-05-05T07:39:09.179Z,7.70
2019-05-05T07:41:41.121Z,7.70
2019-05-05T07:44:25.844Z,7.90
2019-05-05T07:46:46.331Z,8.00
2019-05-05T07:49:18.261Z,8.10
2019-05-05T07:51:50.126Z,8.20
2019-05-05T07:54:23.643Z,8.40
2019-05-05T07:56:55.302Z,8.70
2019-05-05T07:59:27.043Z,8.70
2019-05-05T08:01:58.749Z,8.30
2019-05-05T08:04:30.659Z,8.20
2019-05-05T08:07:04.066Z,8.30
2019-05-05T08:09:36.063Z,8.60
2019-05-05T08:12:07.692Z,8.90
2019-05-05T08:14:39.391Z,9.00
2019-05-05T08:17:38.836Z,9.20
2019-05-05T08:20:33.761Z,9.20
2019-05-05T08:23:08.234Z,9.60
2019-05-05T08:25:58.472Z,9.60
2019-05-05T08:28:38.769Z,9.50
2019-05-05T08:31:22.023Z,9.70
2019-05-05T08:33:54.702Z,9.70
2019-05-05T08:36:27.874Z,9.40
2019-05-05T08:38:59.686Z,9.10
2019-05-05T08:41:31.358Z,9.00
2019-05-05T08:44:03.652Z,9.00
2019-05-05T08:46:35.408Z,8.90
2019-05-05T08:49:07.122Z,8.90
2019-05-05T08:51:38.863Z,9.00
2019-05-05T08:54:10.831Z,9.20
2019-05-05T08:56:44.575Z,9.20
2019-05-05T08:59:16.268Z,9.10
2019-05-05T09:01:48.356Z,9.30
2019-05-05T09:04:20.130Z,9.40
2019-05-05T09:06:53.897Z,9.30
2019-05-05T09:09:25.263Z,9.30
2019-05-05T09:11:57.021Z,9.10
2019-05-05T09:14:28.731Z,9.20
2019-05-05T09:17:00.902Z,9.20
2019-05-05T09:19:34.407Z,9.50
2019-05-05T09:22:08.721Z,9.80
2019-05-05T09:24:49.488Z,10.20
2019-05-05T09:27:35.410Z,10.10
2019-05-05T09:30:07.862Z,10.30
2019-05-05T09:32:40.120Z,10.20
2019-05-05T09:35:13.829Z,10.00
2019-05-05T09:37:45.591Z,9.80
2019-05-05T09:40:20.850Z,9.60
2019-05-05T09:42:53.550Z,9.70
2019-05-05T09:45:25.459Z,9.40
2019-05-05T09:47:57.305Z,9.30
2019-05-05T09:50:29.033Z,9.20
2019-05-05T09:53:00.801Z,9.60
2019-05-05T09:55:33.651Z,9.70
2019-05-05T09:58:05.901Z,9.60
2019-05-05T10:00:41.189Z,9.80
2019-05-05T10:03:14.521Z,10.00
2019-05-05T10:05:47.030Z,10.10
2019-05-05T10:08:18.806Z,9.90
2019-05-05T10:10:50.432Z,10.00
2019-05-05T10:13:22.293Z,10.30
2019-05-05T10:15:55.071Z,10.50
2019-05-05T10:18:26.833Z,10.50
2019-05-05T10:20:58.501Z,10.40
2019-05-05T10:23:34.053Z,10.40
2019-05-05T10:26:08.382Z,10.40
2019-05-05T10:28:40.010Z,10.10
2019-05-05T10:31:13.674Z,10.50
2019-05-05T10:33:50.127Z,10.40
2019-05-05T10:36:21.863Z,10.40
2019-05-05T10:38:57.916Z,10.30
2019-05-05T10:41:29.815Z,10.30
2019-05-05T10:44:03.564Z,10.10
2019-05-05T10:46:34.977Z,10.10
2019-05-05T10:49:06.775Z,9.90
2019-05-05T10:51:39.425Z,9.60
2019-05-05T10:54:11.321Z,9.80
2019-05-05T10:56:42.984Z,9.80
2019-05-05T10:59:14.751Z,9.70
2019-05-05T11:01:46.637Z,9.80
2019-05-05T11:04:18.479Z,9.80
2019-05-05T11:06:50.650Z,10.00
2019-05-05T11:09:24.360Z,10.30
2019-05-05T11:11:56.329Z,10.50
2019-05-05T11:14:28.043Z,10.60
2019-05-05T11:16:59.818Z,10.80
2019-05-05T11:19:33.578Z,10.90
2019-05-05T11:22:05.236Z,11.10
2019-05-05T11:24:37.057Z,10.70
2019-05-05T11:27:09.103Z,10.50
2019-05-05T11:29:59.836Z,10.80
2019-05-05T11:32:49.414Z,11.00
2019-05-05T11:35:24.506Z,11.00
2019-05-05T11:37:56.266Z,10.90
2019-05-05T11:40:34.321Z,11.10
2019-05-05T11:43:06.376Z,11.00
2019-05-05T11:45:38.112Z,11.20
2019-05-05T11:48:10.112Z,11.20
2019-05-05T11:50:43.666Z,11.20
2019-05-05T11:53:15.463Z,11.20
2019-05-05T11:55:47.309Z,11.40
2019-05-05T11:58:19.039Z,11.30
2019-05-05T12:00:51.213Z,11.60
2019-05-05T12:03:22.903Z,11.60
2019-05-05T12:05:54.842Z,11.30
2019-05-05T12:08:26.746Z,11.00
2019-05-05T12:11:00.041Z,10.90
2019-05-05T12:13:31.736Z,11.20
2019-05-05T12:16:05.950Z,11.50
2019-05-05T12:18:37.823Z,11.60
2019-05-05T12:21:09.635Z,11.90
2019-05-05T12:23:41.287Z,12.10
2019-05-05T12:26:24.332Z,12.00
2019-05-05T12:29:01.296Z,11.90
2019-05-05T12:31:33.997Z,12.20
2019-05-05T12:34:05.775Z,12.30
2019-05-05T12:36:37.641Z,12.10
2019-05-05T12:39:14.264Z,12.00
2019-05-05T12:41:46.203Z,12.40
2019-05-05T12:44:28.855Z,12.10
2019-05-05T12:47:23.636Z,11.90
2019-05-05T12:49:59.176Z,11.90
2019-05-05T12:52:30.988Z,12.40
2019-05-05T12:55:04.960Z,12.90
2019-05-05T12:57:36.125Z,13.20
2019-05-05T13:00:09.624Z,13.20
2019-05-05T13:02:41.425Z,12.80
2019-05-05T13:05:14.457Z,12.80
2019-05-05T13:07:47.273Z,12.50
2019-05-05T13:10:21.500Z,12.60
2019-05-05T13:12:54.329Z,13.10
2019-05-05T13:15:26.607Z,13.20
2019-05-05T13:17:58.334Z,13.30
2019-05-05T13:20:42.031Z,13.30
2019-05-05T13:23:26.777Z,13.40
2019-05-05T13:26:34.796Z,13.70
2019-05-05T13:29:06.561Z,13.90
2019-05-05T13:31:38.173Z,13.90
2019-05-05T13:34:10.042Z,13.50
2019-05-05T13:36:43.953Z,13.10
2019-05-05T13:39:15.111Z,12.80
2019-05-05T13:41:46.916Z,12.30
2019-05-05T13:44:37.290Z,12.30
2019-05-05T13:47:09.088Z,12.30
2019-05-05T13:49:43.601Z,12.00
2019-05-05T13:52:15.339Z,11.90
2019-05-05T13:54:47.141Z,11.90
2019-05-05T13:57:18.911Z,11.50
2019-05-05T13:59:50.593Z,11.70
2019-05-05T14:02:24.342Z,11.90
2019-05-05T14:04:55.935Z,12.20
2019-05-05T14:07:27.592Z,12.00
2019-05-05T14:09:59.278Z,11.70
2019-05-05T14:12:31.025Z,11.30
2019-05-05T14:15:04.040Z,11.10
2019-05-05T14:17:36.164Z,11.10
2019-05-05T14:20:11.965Z,11.30
2019-05-05T14:22:43.696Z,11.50
2019-05-05T14:25:19.661Z,11.70
2019-05-05T14:27:51.308Z,11.90
2019-05-05T14:30:36.244Z,12.00
2019-05-05T14:33:10.422Z,11.80
2019-05-05T14:36:01.638Z,11.70
2019-05-05T14:38:44.326Z,11.90
2019-05-05T14:41:15.432Z,11.90
2019-05-05T14:43:47.116Z,12.00
2019-05-05T14:46:19.743Z,11.70
2019-05-05T14:48:53.461Z,11.50
2019-05-05T14:51:25.158Z,11.50
2019-05-05T14:53:56.899Z,11.70
2019-05-05T14:56:36.209Z,12.10
2019-05-05T14:59:03.698Z,12.30
2019-05-05T15:01:35.680Z,12.50
2019-05-05T15:04:09.153Z,12.60
2019-05-05T15:06:45.157Z,12.50
2019-05-05T15:09:34.649Z,12.50
2019-05-05T15:12:23.789Z,12.40
2019-05-05T15:14:55.608Z,12.60
2019-05-05T15:17:27.469Z,12.80
2019-05-05T15:19:59.151Z,12.70
2019-05-05T15:22:30.920Z,12.60
2019-05-05T15:25:04.186Z,12.30
2019-05-05T15:27:36.387Z,12.00
2019-05-05T15:30:08.898Z,12.00
2019-05-05T15:32:40.655Z,12.10
2019-05-05T15:35:14.144Z,12.00
2019-05-05T15:37:46.074Z,12.00
2019-05-05T15:40:18.288Z,12.00
2019-05-05T15:42:50.307Z,12.10
2019-05-05T15:45:23.535Z,12.00
2019-05-05T15:47:55.308Z,12.10
2019-05-05T15:50:27.196Z,12.30
2019-05-05T15:52:59.137Z,12.10
2019-05-05T15:55:30.820Z,12.00
2019-05-05T15:58:03.599Z,12.00
2019-05-05T16:00:35.498Z,12.10
2019-05-05T16:03:07.430Z,11.90
2019-05-05T16:05:39.291Z,11.80
2019-05-05T16:08:10.951Z,11.80
2019-05-05T16:10:43.992Z,11.70
2019-05-05T16:13:15.893Z,11.80
2019-05-05T16:16:01.141Z,11.90
2019-05-05T16:19:10.981Z,12.00
2019-05-05T16:21:54.682Z,11.80
2019-05-05T16:24:37.049Z,11.60
2019-05-05T16:27:21.160Z,11.60
2019-05-05T16:29:44.214Z,11.70
2019-05-05T16:32:21.827Z,11.70
2019-05-05T16:34:49.687Z,11.80
2019-05-05T16:37:20.972Z,11.80
2019-05-05T16:39:54.283Z,11.90
2019-05-05T16:42:25.199Z,11.80
2019-05-05T16:44:56.885Z,11.60
2019-05-05T16:47:28.574Z,11.60
2019-05-05T16:50:00.584Z,11.50
2019-05-05T16:52:37.457Z,11.60
2019-05-05T16:55:37.354Z,11.80
2019-05-05T16:58:09.142Z,11.80
2019-05-05T17:00:40.866Z,11.60
2019-05-05T17:03:13.475Z,11.50
2019-05-05T17:05:46.780Z,11.60
2019-05-05T17:08:19.617Z,11.70
2019-05-05T17:10:51.389Z,11.70
2019-05-05T17:13:40.591Z,11.70
2019-05-05T17:16:24.802Z,11.50
2019-05-05T17:19:13.924Z,11.50
2019-05-05T17:22:04.742Z,11.50
2019-05-05T17:24:38.696Z,11.40
2019-05-05T17:27:09.896Z,11.30
2019-05-05T17:29:41.678Z,11.30
2019-05-05T17:32:13.948Z,11.30
2019-05-05T17:34:45.788Z,11.40
2019-05-05T17:37:17.677Z,11.30
2019-05-05T17:39:55.114Z,11.30
2019-05-05T17:42:57.803Z,11.10
2019-05-05T17:45:34.458Z,11.00
2019-05-05T17:48:19.591Z,11.00
2019-05-05T17:51:19.129Z,11.00
2019-05-05T17:54:21.845Z,11.00
2019-05-05T17:56:55.060Z,10.90
2019-05-05T17:59:26.876Z,10.90
2019-05-05T18:01:58.760Z,10.80
2019-05-05T18:04:30.642Z,10.80
2019-05-05T18:07:24.503Z,10.70
2019-05-05T18:10:06.824Z,10.70
2019-05-05T18:13:09.802Z,10.60
2019-05-05T18:16:09.456Z,10.50
2019-05-05T18:18:41.173Z,10.50
2019-05-05T18:21:14.211Z,10.50
2019-05-05T18:23:46.039Z,10.40
2019-05-05T18:26:17.821Z,10.40
2019-05-05T18:28:49.447Z,10.40
2019-05-05T18:31:21.146Z,10.30
2019-05-05T18:33:54.366Z,10.30
2019-05-05T18:36:26.229Z,10.30
2019-05-05T18:38:57.964Z,10.30
2019-05-05T18:41:38.284Z,10.20
2019-05-05T18:44:18.152Z,10.20
2019-05-05T18:47:11.694Z,10.10
2019-05-05T18:49:42.694Z,10.10
2019-05-05T18:52:14.644Z,10.00
2019-05-05T18:54:46.565Z,10.00
2019-05-05T18:57:18.372Z,10.00
2019-05-05T18:59:50.104Z,10.00
2019-05-05T19:02:47.023Z,9.90
2019-05-05T19:05:44.281Z,10.00
2019-05-05T19:08:25.371Z,9.90
2019-05-05T19:10:57.113Z,9.90
2019-05-05T19:13:29.090Z,9.90
2019-05-05T19:16:00.971Z,9.80
2019-05-05T19:18:34.039Z,9.80
2019-05-05T19:21:18.121Z,9.80
2019-05-05T19:23:49.786Z,9.70
2019-05-05T19:26:21.667Z,9.70
2019-05-05T19:28:54.806Z,9.70
2019-05-05T19:31:26.741Z,9.70
2019-05-05T19:33:58.522Z,9.60
2019-05-05T19:36:30.384Z,9.60
2019-05-05T19:39:04.102Z,9.50
2019-05-05T19:41:38.064Z,9.50
2019-05-05T19:44:09.881Z,9.50
2019-05-05T19:47:05.717Z,9.50
2019-05-05T19:49:39.167Z,9.40
2019-05-05T19:52:10.057Z,9.30
2019-05-05T19:54:45.155Z,9.30
2019-05-05T19:57:15.284Z,9.30
2019-05-05T19:59:46.950Z,9.20
2019-05-05T20:02:17.775Z,9.10
2019-05-05T20:04:49.470Z,9.10
2019-05-05T20:07:21.202Z,9.10
2019-05-05T20:09:54.396Z,9.10
2019-05-05T20:12:26.368Z,9.00
2019-05-05T20:14:58.643Z,8.90
2019-05-05T20:17:35.309Z,8.90
2019-05-05T20:20:08.850Z,8.80
2019-05-05T20:22:40.582Z,8.80
2019-05-05T20:25:13.986Z,8.70
2019-05-05T20:27:45.953Z,8.70
2019-05-05T20:30:18.084Z,8.60
2019-05-05T20:33:04.224Z,8.60
2019-05-05T20:35:40.496Z,8.60
2019-05-05T20:38:32.694Z,8.50
2019-05-05T20:41:29.638Z,8.50
2019-05-05T20:44:01.327Z,8.50
2019-05-05T20:46:34.294Z,8.40
2019-05-05T20:49:06.123Z,8.40
2019-05-05T20:51:37.869Z,8.40
2019-05-05T20:54:09.719Z,8.30
2019-05-05T20:56:41.547Z,8.20
2019-05-05T20:59:26.768Z,8.20
2019-05-05T21:01:46.600Z,8.20
2019-05-05T21:04:18.464Z,8.10
2019-05-05T21:06:49.806Z,8.10
2019-05-05T21:09:21.429Z,8.00
2019-05-05T21:11:54.731Z,7.90
2019-05-05T21:14:34.470Z,7.90
2019-05-05T21:16:59.984Z,7.80
2019-05-05T21:19:31.767Z,7.80
2019-05-05T21:22:22.346Z,7.80
2019-05-05T21:24:54.793Z,7.70
2019-05-05T21:27:26.486Z,7.70
2019-05-05T21:29:58.170Z,7.70
2019-05-05T21:32:29.951Z,7.60
2019-05-05T21:35:01.683Z,7.50
2019-05-05T21:37:34.056Z,7.50
2019-05-05T21:40:06.747Z,7.50
2019-05-05T21:42:38.562Z,7.40
2019-05-05T21:45:10.692Z,7.50
2019-05-05T21:47:44.239Z,7.40
2019-05-05T21:50:18.505Z,7.40
2019-05-05T21:53:14.105Z,7.40
2019-05-05T21:55:50.790Z,7.40
2019-05-05T21:58:29.495Z,7.30
2019-05-05T22:01:29.213Z,7.30
2019-05-05T22:04:01.011Z,7.20
2019-05-05T22:06:33.654Z,7.20
2019-05-05T22:09:07.090Z,7.10
2019-05-05T22:11:40.422Z,7.10
2019-05-05T22:14:13.912Z,7.10
2019-05-05T22:16:45.668Z,7.10
2019-05-05T22:19:19.023Z,7.10
2019-05-05T22:21:55.807Z,7.10
2019-05-05T22:24:27.429Z,7.00
2019-05-05T22:26:59.225Z,7.00
2019-05-05T22:29:30.890Z,7.00
2019-05-05T22:32:05.987Z,7.00
2019-05-05T22:34:35.914Z,6.90
2019-05-05T22:37:09.545Z,6.90
2019-05-05T22:39:40.952Z,6.80
2019-05-05T22:42:13.730Z,6.80
2019-05-05T22:44:46.247Z,6.70
2019-05-05T22:47:17.987Z,6.70
2019-05-05T22:49:49.727Z,6.70
2019-05-05T22:52:25.111Z,6.60
2019-05-05T22:54:55.903Z,6.60
2019-05-05T22:57:27.672Z,6.70
2019-05-05T22:59:59.416Z,6.60
2019-05-05T23:02:34.172Z,6.60
2019-05-05T23:05:14.547Z,6.50
2019-05-05T23:07:45.776Z,6.50
2019-05-05T23:10:17.670Z,6.50
2019-05-05T23:12:49.585Z,6.50
2019-05-05T23:15:21.231Z,6.40
2019-05-05T23:18:15.860Z,6.40
2019-05-05T23:21:15.594Z,6.40
2019-05-05T23:24:06.683Z,6.40
2019-05-05T23:26:40.302Z,6.30
2019-05-05T23:29:12.032Z,6.30
2019-05-05T23:31:44.488Z,6.20
2019-05-05T23:34:16.500Z,6.20
2019-05-05T23:36:48.465Z,6.20
2019-05-05T23:39:20.140Z,6.20
2019-05-05T23:41:51.985Z,6.20
2019-05-05T23:44:23.873Z,6.10
2019-05-05T23:46:55.679Z,6.10
2019-05-05T23:49:27.518Z,6.10
2019-05-05T23:51:59.525Z,6.00
2019-05-05T23:54:31.370Z,6.00
2019-05-05T23:57:04.741Z,6.00
2019-05-05T23:59:36.313Z,5.90
